createdAt,value
2023-03-20T00:00:00.871Z,21.9
2023-03-20T00:05:01.326Z,22.0
2023-03-20T00:10:01.266Z,22.0
2023-03-20T00:15:01.458Z,22.0
2023-03-20T00:20:01.173Z,22.0
2023-03-20T00:25:00.873Z,22.0
2023-03-20T00:30:01.260Z,22.0
2023-03-20T00:35:01.033Z,22.0
2023-03-20T00:40:01.324Z,22.0
2023-03-20T00:45:00.856Z,22.0
2023-03-20T00:50:01.549Z,22.1
2023-03-20T00:55:02.795Z,22.1
2023-03-20T01:00:00.851Z,22.1
2023-03-20T01:05:01.268Z,22.1
2023-03-20T01:10:01.128Z,22.2
2023-03-20T01:15:01.306Z,22.2
2023-03-20T01:25:01.500Z,22.2
2023-03-20T01:30:01.050Z,22.2
2023-03-20T01:35:01.305Z,22.2
2023-03-20T01:40:01.552Z,22.2
2023-03-20T01:45:00.848Z,22.2
2023-03-20T01:50:01.927Z,22.2
2023-03-20T01:55:00.501Z,22.2
2023-03-20T02:00:01.353Z,22.2
2023-03-20T02:05:01.170Z,22.2
2023-03-20T02:10:01.075Z,22.2
2023-03-20T02:15:00.928Z,22.2
2023-03-20T02:20:00.931Z,22.2
2023-03-20T02:25:01.427Z,22.2
2023-03-20T02:30:00.872Z,22.2
2023-03-20T02:35:02.931Z,22.2
2023-03-20T02:40:01.344Z,22.2
2023-03-20T02:45:00.900Z,22.2
2023-03-20T02:50:01.116Z,22.2
2023-03-20T02:55:01.508Z,22.2
2023-03-20T03:00:00.819Z,22.2
2023-03-20T03:05:01.496Z,22.2
2023-03-20T03:10:00.798Z,22.2
2023-03-20T03:15:01.316Z,22.2
2023-03-20T03:20:01.111Z,22.2
2023-03-20T03:25:01.457Z,22.2
2023-03-20T03:30:00.809Z,22.2
2023-03-20T03:35:01.140Z,22.2
2023-03-20T03:40:01.102Z,22.2
2023-03-20T03:45:01.061Z,22.1
2023-03-20T03:50:00.820Z,22.2
2023-03-20T03:55:01.321Z,22.2
2023-03-20T04:00:01.669Z,22.2
2023-03-20T04:05:03.258Z,22.2
2023-03-20T04:10:00.835Z,22.2
2023-03-20T04:15:03.078Z,22.2
2023-03-20T04:20:01.267Z,22.2
2023-03-20T04:25:01.435Z,22.2
2023-03-20T04:30:00.855Z,22.1
2023-03-20T04:35:01.238Z,22.2
2023-03-20T04:40:01.086Z,22.2
2023-03-20T04:45:01.064Z,22.1
2023-03-20T04:50:00.821Z,22.1
2023-03-20T04:55:00.487Z,22.2
2023-03-20T05:00:01.132Z,22.2
2023-03-20T05:05:01.453Z,22.2
2023-03-20T05:10:01.132Z,22.2
2023-03-20T05:15:01.607Z,22.2
2023-03-20T05:20:01.623Z,22.2
2023-03-20T05:25:01.082Z,22.2
2023-03-20T05:30:00.805Z,22.2
2023-03-20T05:35:01.714Z,22.2
2023-03-20T05:40:01.041Z,22.2
2023-03-20T05:45:00.841Z,22.2
2023-03-20T05:50:01.286Z,22.2
2023-03-20T05:55:01.014Z,22.2
2023-03-20T06:00:01.271Z,22.2
2023-03-20T06:05:00.805Z,22.2
2023-03-20T06:10:01.408Z,22.1
2023-03-20T06:15:02.071Z,22.1
2023-03-20T06:20:02.349Z,22.2
2023-03-20T06:25:03.248Z,22.2
2023-03-20T06:30:01.387Z,22.1
2023-03-20T06:35:01.458Z,22.2
2023-03-20T06:45:00.919Z,22.2
2023-03-20T06:50:01.012Z,22.2
2023-03-20T06:55:01.099Z,22.2
2023-03-20T07:00:00.814Z,22.2
2023-03-20T07:05:01.329Z,22.2
2023-03-20T07:10:01.916Z,22.2
2023-03-20T07:15:00.899Z,22.2
2023-03-20T07:20:00.944Z,22.2
2023-03-20T07:25:00.864Z,22.2
2023-03-20T07:30:01.322Z,22.2
2023-03-20T07:35:00.883Z,22.2
2023-03-20T07:40:01.038Z,22.2
2023-03-20T07:45:01.320Z,22.2
2023-03-20T07:50:01.038Z,22.3
2023-03-20T07:55:01.387Z,22.2
2023-03-20T08:00:01.355Z,22.2
2023-03-20T08:05:01.267Z,22.3
2023-03-20T08:15:00.853Z,22.3
2023-03-20T08:20:01.080Z,22.3
2023-03-20T08:25:01.326Z,22.3
2023-03-20T08:30:01.131Z,22.3
2023-03-20T08:35:01.098Z,22.3
2023-03-20T08:40:00.832Z,22.3
2023-03-20T08:45:01.560Z,22.4
2023-03-20T08:50:01.252Z,22.3
2023-03-20T08:55:01.595Z,22.4
2023-03-20T09:00:02.197Z,22.4
2023-03-20T09:05:01.063Z,22.4
2023-03-20T09:10:01.163Z,22.4
2023-03-20T09:15:01.501Z,22.4
2023-03-20T09:20:02.158Z,22.4
2023-03-20T09:25:03.008Z,22.4
2023-03-20T09:30:03.693Z,22.4
2023-03-20T09:35:00.842Z,22.4
2023-03-20T09:40:00.885Z,22.4
2023-03-20T09:45:01.540Z,22.4
2023-03-20T09:50:01.294Z,22.4
2023-03-20T09:55:00.878Z,22.4
2023-03-20T10:00:01.337Z,22.3
2023-03-20T10:05:03.162Z,22.2
2023-03-20T10:10:00.857Z,22.1
2023-03-20T10:15:00.796Z,22.0
2023-03-20T10:20:00.901Z,22.0
2023-03-20T10:25:01.361Z,21.9
2023-03-20T10:30:01.298Z,21.8
2023-03-20T10:35:01.218Z,21.7
2023-03-20T10:40:01.592Z,21.6
2023-03-20T10:45:00.994Z,21.5
2023-03-20T10:50:01.042Z,21.5
2023-03-20T10:55:01.477Z,21.4
2023-03-20T11:00:01.247Z,21.3
2023-03-20T11:05:01.256Z,21.3
2023-03-20T11:10:01.245Z,21.2
2023-03-20T11:15:01.273Z,21.2
2023-03-20T11:20:01.050Z,21.2
2023-03-20T11:25:01.816Z,21.2
2023-03-20T11:30:03.635Z,21.3
2023-03-20T11:35:01.568Z,21.3
2023-03-20T11:40:01.417Z,21.5
2023-03-20T11:45:01.292Z,21.5
2023-03-20T11:50:01.474Z,21.5
2023-03-20T11:55:02.347Z,21.6
2023-03-20T12:00:01.280Z,21.7
2023-03-20T12:05:00.879Z,21.7
2023-03-20T12:15:03.210Z,21.8
2023-03-20T12:20:01.262Z,21.8
2023-03-20T12:25:02.141Z,21.9
2023-03-20T12:30:01.613Z,21.9
2023-03-20T12:35:01.322Z,22.0
2023-03-20T12:40:01.511Z,22.0
2023-03-20T12:45:02.896Z,22.0
2023-03-20T12:50:01.934Z,22.0
2023-03-20T12:55:00.864Z,22.0
2023-03-20T13:00:00.823Z,22.0
2023-03-20T13:05:01.255Z,22.1
2023-03-20T13:10:01.055Z,22.1
2023-03-20T13:15:00.982Z,22.1
2023-03-20T13:20:00.841Z,22.1
2023-03-20T13:25:01.249Z,22.1
2023-03-20T13:30:01.095Z,22.2
2023-03-20T13:35:01.020Z,22.2
2023-03-20T13:40:00.871Z,22.2
2023-03-20T13:45:01.274Z,22.2
2023-03-20T13:50:00.834Z,22.2
2023-03-20T13:55:01.045Z,22.2
2023-03-20T14:00:01.034Z,22.3
2023-03-20T14:05:01.061Z,22.2
2023-03-20T14:10:02.649Z,22.2
2023-03-20T14:15:00.496Z,22.3
2023-03-20T14:20:03.374Z,22.3
2023-03-20T14:25:01.074Z,22.3
2023-03-20T14:30:00.818Z,22.3
2023-03-20T14:35:00.788Z,22.3
2023-03-20T14:40:01.245Z,22.4
2023-03-20T14:45:01.344Z,22.4
2023-03-20T14:50:01.120Z,22.4
2023-03-20T14:55:01.163Z,22.4
2023-03-20T15:00:02.938Z,22.4
2023-03-20T15:05:01.097Z,22.4
2023-03-20T15:10:02.356Z,22.5
2023-03-20T15:15:01.808Z,22.5
2023-03-20T15:20:00.805Z,22.5
2023-03-20T15:25:01.379Z,22.4
2023-03-20T15:30:01.948Z,22.5
2023-03-20T15:35:01.649Z,22.5
2023-03-20T15:40:00.858Z,22.5
2023-03-20T15:45:01.226Z,22.4
2023-03-20T15:50:01.731Z,22.5
2023-03-20T15:55:01.580Z,22.5
2023-03-20T16:00:01.293Z,22.5
2023-03-20T16:05:01.229Z,22.5
2023-03-20T16:10:00.940Z,22.5
2023-03-20T16:15:01.488Z,22.5
2023-03-20T16:20:01.055Z,22.5
2023-03-20T16:25:01.084Z,22.5
2023-03-20T16:30:02.486Z,22.5
2023-03-20T16:35:01.576Z,22.5
2023-03-20T16:40:01.192Z,22.5
2023-03-20T16:45:02.682Z,22.5
2023-03-20T16:50:00.682Z,22.5
2023-03-20T16:55:00.968Z,22.5
2023-03-20T17:00:03.292Z,22.5
2023-03-20T17:05:01.970Z,22.5
2023-03-20T17:10:01.524Z,22.5
2023-03-20T17:15:01.142Z,22.5
2023-03-20T17:20:01.535Z,22.5
2023-03-20T17:25:02.119Z,22.5
2023-03-20T17:30:00.890Z,22.5
2023-03-20T17:35:00.810Z,22.5
2023-03-20T17:40:00.902Z,22.5
2023-03-20T17:45:01.099Z,22.6
2023-03-20T17:50:01.865Z,22.6
2023-03-20T17:55:00.806Z,22.5
2023-03-20T18:00:02.230Z,22.5
2023-03-20T18:05:01.039Z,22.5
2023-03-20T18:10:00.809Z,22.5
2023-03-20T18:15:01.532Z,22.5
2023-03-20T18:20:00.897Z,22.5
2023-03-20T18:25:02.629Z,22.5
2023-03-20T18:30:01.364Z,22.5
2023-03-20T18:35:01.066Z,22.5
2023-03-20T18:40:00.860Z,22.5
2023-03-20T18:45:01.368Z,22.5
2023-03-20T18:50:01.314Z,22.5
2023-03-20T18:55:01.531Z,22.5
2023-03-20T19:00:01.128Z,22.5
2023-03-20T19:05:01.638Z,22.5
2023-03-20T19:10:01.116Z,22.5
2023-03-20T19:15:01.530Z,22.5
2023-03-20T19:20:02.367Z,22.5
2023-03-20T19:25:01.036Z,22.5
2023-03-20T19:30:02.096Z,22.5
2023-03-20T19:40:01.297Z,22.5
2023-03-20T19:45:01.703Z,22.5
2023-03-20T19:50:00.887Z,22.6
2023-03-20T19:55:03.272Z,22.6
2023-03-20T20:00:47.146Z,22.6
2023-03-20T20:05:01.286Z,22.6
2023-03-20T20:15:01.468Z,22.5
2023-03-20T20:20:01.453Z,22.5
2023-03-20T20:25:02.422Z,22.4
2023-03-20T20:30:01.487Z,22.2
2023-03-20T20:40:02.002Z,22.1
2023-03-20T20:45:01.579Z,22.1
2023-03-20T20:50:01.533Z,22.1
2023-03-20T20:55:11.049Z,22.1
2023-03-20T21:05:00.864Z,22.1
2023-03-20T21:10:01.421Z,22.2
2023-03-20T21:15:01.027Z,22.2
2023-03-20T21:20:01.286Z,22.3
2023-03-20T21:25:13.747Z,22.3
2023-03-20T21:30:00.890Z,22.3
2023-03-20T21:35:02.613Z,22.3
2023-03-20T21:40:01.504Z,22.4
2023-03-20T21:45:58.881Z,22.4
2023-03-20T21:55:45.781Z,22.4
2023-03-20T22:05:37.266Z,22.4
2023-03-20T22:20:49.730Z,22.5
2023-03-20T22:25:46.256Z,22.5
2023-03-20T22:45:03.603Z,22.5
2023-03-20T22:50:00.850Z,22.5
2023-03-20T22:55:01.096Z,22.5
2023-03-20T23:00:01.262Z,22.5
2023-03-20T23:05:01.332Z,22.5
2023-03-20T23:10:01.117Z,22.6
2023-03-20T23:15:02.046Z,22.6
2023-03-20T23:20:10.724Z,22.6
2023-03-20T23:25:09.924Z,22.6
2023-03-20T23:30:01.524Z,22.6
2023-03-20T23:35:00.782Z,22.6
2023-03-20T23:40:01.192Z,22.6
2023-03-20T23:45:13.556Z,22.6
2023-03-20T23:50:01.266Z,22.6
2023-03-20T23:55:01.363Z,22.6
